Overview Statistics Trail Chart Weather Telemetry Raw packets
 

This is the latest recevied weather packets stored in our database for station/object KC1TEM-13. If no packets are shown the sender has not sent any weather packets the latest 10 day(s).

<< 35 36 37 38 39 40 41 >>
Time Temp. Humidity Pressure Rain* Wind** Luminosity Snow
1788377540 20.56° C 79% 1022.9 hPa 0 mm - 205 W/m² -
1788377239 20.56° C 79% 1022.9 hPa 0 mm - 254 W/m² -
1788376938 20.56° C 76% 1023 hPa 0 mm - 221 W/m² -
1788376638 20.56° C 78% 1022.9 hPa 0 mm - 246 W/m² -
1788376333 20.56° C 76% 1022.9 hPa 0 mm - 309 W/m² -
1788376029 20.56° C 76% 1022.7 hPa 0 mm - 411 W/m² -
1788375728 20.56° C 76% 1022.7 hPa 0 mm - 395 W/m² -
1788375424 21.11° C 80% 1022.8 hPa 0 mm - 306 W/m² -
1788375120 20.56° C 81% 1022.5 hPa 0 mm - 371 W/m² -
1788374815 20.56° C 77% 1022.6 hPa 0 mm - 343 W/m² -
1788374511 20.56° C 76% 1022.6 hPa 0 mm - 341 W/m² -
1788374206 20.56° C 78% 1022.5 hPa 0 mm - 350 W/m² -
1788373903 20.56° C 80% 1022.3 hPa 0 mm - 428 W/m² -
1788373599 20.56° C 79% 1022.5 hPa 0 mm - 365 W/m² -
1788373295 20.56° C 81% 1022.5 hPa 0 mm - 348 W/m² -
1788372991 20° C 80% 1022.7 hPa 0 mm - 342 W/m² -
1788372690 20° C 84% 1022.8 hPa 0 mm - 251 W/m² -
1788372390 20° C 83% 1022.9 hPa 0 mm - 251 W/m² -
1788372086 20° C 84% 1022.8 hPa 0 mm - 247 W/m² -
1788371786 20° C 83% 1022.9 hPa 0 mm - 272 W/m² -
1788371481 20° C 79% 1023 hPa 0 mm - 266 W/m² -
1788371178 20° C 81% 1022.9 hPa 0 mm - 241 W/m² -
1788370873 20° C 81% 1023 hPa 0 mm - 171 W/m² -
1788370568 20° C 81% 1023.1 hPa 0 mm - 185 W/m² -
1788370263 20° C 84% 1022.9 hPa 0 mm - 207 W/m² -

* Rain latest hour (hover to see other rain measurements)
** Current wind speed in m/s (hover to see current wind gust speed)